East Wareham, Massachusetts
Current Conditions -  °F | °C
As of 8:15 PM on Saturday 22 Nov 2014 (Local Time) from KFMH Reporting Station
Overcast Overcast  
Wind Chill: 39°   Ceiling: 4100
Heat Index: 46°   Visibility: 10mi
Dew Point: 36°   Wind: 21mph
Humidity: 66%   Direction: 240°WSW
Pressure: 30.14"   Gusts: 29mph
Location:  41.76°N, 70.67°W
Report Text: KFMH 230115Z AUTO 24018G25KT 10SM BKN041 OVC048 08/02 A3014 RMK AO2
Loading
Personal Weather Stations






























Interactive Weather Map New forecast layout! Learn more

10-Day Weather Forecast

Advertisements
Track Severe Weather on mobile